createdAt,value
2023-04-10T00:01:34.885Z,94893.80
2023-04-10T00:04:01.309Z,94886.80
2023-04-10T00:06:27.808Z,94885.00
2023-04-10T00:08:53.966Z,94887.60
2023-04-10T00:11:20.084Z,94882.00
2023-04-10T00:13:46.326Z,94883.60
2023-04-10T00:16:12.634Z,94880.40
2023-04-10T00:18:38.861Z,94877.40
2023-04-10T00:21:05.419Z,94878.20
2023-04-10T00:23:33.915Z,94874.60
2023-04-10T00:26:00.050Z,94869.60
2023-04-10T00:28:26.175Z,94870.00
2023-04-10T00:30:52.259Z,94865.00
2023-04-10T00:33:18.442Z,94865.60
2023-04-10T00:35:44.904Z,94865.60
2023-04-10T00:38:11.392Z,94866.40
2023-04-10T00:40:37.539Z,94863.80
2023-04-10T00:43:03.639Z,94871.60
2023-04-10T00:45:30.027Z,94869.80
2023-04-10T00:47:56.343Z,94873.00
2023-04-10T00:50:22.594Z,94872.20
2023-04-10T00:52:48.745Z,94869.60
2023-04-10T00:55:15.430Z,94863.40
2023-04-10T00:57:41.605Z,94863.20
2023-04-10T01:00:07.716Z,94863.00
2023-04-10T01:02:33.965Z,94864.80
2023-04-10T01:05:00.226Z,94863.60
2023-04-10T01:07:26.642Z,94859.00
2023-04-10T01:09:53.473Z,94863.20
2023-04-10T01:12:19.652Z,94861.40
2023-04-10T01:14:45.758Z,94859.00
2023-04-10T01:17:12.073Z,94857.80
2023-04-10T01:19:38.303Z,94865.20
2023-04-10T01:22:04.676Z,94859.20
2023-04-10T01:24:30.831Z,94863.80
2023-04-10T01:26:57.191Z,94860.40
2023-04-10T01:29:23.701Z,94863.60
2023-04-10T01:31:49.862Z,94862.80
2023-04-10T01:34:16.217Z,94865.20
2023-04-10T01:36:42.365Z,94869.20
2023-04-10T01:39:08.909Z,94866.20
2023-04-10T01:41:35.000Z,94867.00
2023-04-10T01:44:01.586Z,94869.20
2023-04-10T01:46:27.782Z,94873.00
2023-04-10T01:48:53.974Z,94872.80
2023-04-10T01:51:20.512Z,94874.40
2023-04-10T01:53:46.629Z,94870.40
2023-04-10T01:56:12.713Z,94868.60
2023-04-10T01:58:39.007Z,94866.20
2023-04-10T02:01:05.884Z,94868.00
2023-04-10T02:03:32.171Z,94872.60
2023-04-10T02:05:58.436Z,94869.00
2023-04-10T02:08:24.603Z,94867.80
2023-04-10T02:10:50.700Z,94868.00
2023-04-10T02:13:16.821Z,94863.40
2023-04-10T02:15:43.062Z,94866.00
2023-04-10T02:18:09.238Z,94864.80
2023-04-10T02:20:35.515Z,94872.00
2023-04-10T02:23:03.057Z,94869.80
2023-04-10T02:25:29.138Z,94871.40
2023-04-10T02:27:55.293Z,94869.20
2023-04-10T02:30:21.513Z,94869.60
2023-04-10T02:32:47.656Z,94866.60
2023-04-10T02:35:13.873Z,94867.60
2023-04-10T02:37:40.007Z,94870.00
2023-04-10T02:40:06.241Z,94869.80
2023-04-10T02:42:32.627Z,94871.80
2023-04-10T02:44:58.850Z,94875.80
2023-04-10T02:47:25.290Z,94876.00
2023-04-10T02:49:51.530Z,94873.80
2023-04-10T02:52:18.180Z,94876.20
2023-04-10T02:54:44.404Z,94871.60
2023-04-10T02:57:11.099Z,94871.80
2023-04-10T02:59:37.422Z,94873.60
2023-04-10T03:02:03.657Z,94871.60
2023-04-10T03:04:29.869Z,94869.60
2023-04-10T03:06:56.037Z,94864.80
2023-04-10T03:09:22.159Z,94865.60
2023-04-10T03:11:48.269Z,94867.80
2023-04-10T03:14:15.034Z,94865.60
2023-04-10T03:16:41.315Z,94865.20
2023-04-10T03:19:07.564Z,94861.20
2023-04-10T03:21:33.706Z,94861.20
2023-04-10T03:24:00.383Z,94862.20
2023-04-10T03:26:27.211Z,94861.60
2023-04-10T03:28:53.362Z,94859.80
2023-04-10T03:31:19.867Z,94862.40
2023-04-10T03:33:46.135Z,94860.00
2023-04-10T03:36:12.318Z,94861.00
2023-04-10T03:38:38.416Z,94859.40
2023-04-10T03:41:04.516Z,94862.40
2023-04-10T03:43:30.892Z,94862.20
2023-04-10T03:45:56.992Z,94862.40
2023-04-10T03:48:23.258Z,94861.00
2023-04-10T03:50:49.538Z,94861.00
2023-04-10T03:53:16.488Z,94861.80
2023-04-10T03:55:42.660Z,94862.80
2023-04-10T03:58:08.903Z,94859.20
2023-04-10T04:00:35.124Z,94851.40
2023-04-10T04:03:04.229Z,94848.00
2023-04-10T04:05:30.733Z,94851.80
2023-04-10T04:07:56.838Z,94850.60
2023-04-10T04:10:23.686Z,94849.00
2023-04-10T04:12:49.935Z,94852.60
2023-04-10T04:15:16.188Z,94847.80
2023-04-10T04:17:42.370Z,94854.00
2023-04-10T04:20:08.555Z,94847.00
2023-04-10T04:22:34.732Z,94850.80
2023-04-10T04:25:00.882Z,94851.80
2023-04-10T04:27:27.036Z,94852.40
2023-04-10T04:29:53.205Z,94857.80
2023-04-10T04:32:19.430Z,94855.40
2023-04-10T04:34:45.735Z,94858.40
2023-04-10T04:37:11.855Z,94861.00
2023-04-10T04:39:37.951Z,94858.00
2023-04-10T04:42:04.139Z,94862.60
2023-04-10T04:44:30.585Z,94861.20
2023-04-10T04:46:56.676Z,94858.40
2023-04-10T04:49:23.036Z,94866.00
2023-04-10T04:51:49.142Z,94865.60
2023-04-10T04:54:15.338Z,94865.60
2023-04-10T04:56:41.524Z,94870.60
2023-04-10T04:59:07.678Z,94877.00
2023-04-10T05:01:33.900Z,94877.60
2023-04-10T05:04:00.631Z,94881.00
2023-04-10T05:06:26.807Z,94882.60
2023-04-10T05:08:53.117Z,94880.80
2023-04-10T05:11:20.019Z,94879.40
2023-04-10T05:13:46.194Z,94877.20
2023-04-10T05:16:12.398Z,94877.00
2023-04-10T05:18:38.615Z,94884.80
2023-04-10T05:21:04.858Z,94886.60
2023-04-10T05:23:31.001Z,94883.40
2023-04-10T05:25:57.261Z,94883.60
2023-04-10T05:28:23.697Z,94886.40
2023-04-10T05:30:49.871Z,94893.20
2023-04-10T05:33:16.239Z,94898.00
2023-04-10T05:35:42.341Z,94895.20
2023-04-10T05:38:08.692Z,94900.60
2023-04-10T05:40:34.937Z,94903.00
2023-04-10T05:43:01.170Z,94901.20
2023-04-10T05:45:28.205Z,94898.60
2023-04-10T05:47:54.521Z,94898.80
2023-04-10T05:50:22.228Z,94902.60
2023-04-10T05:52:49.072Z,94904.80
2023-04-10T05:55:15.528Z,94903.40
2023-04-10T05:57:41.669Z,94898.40
2023-04-10T06:00:08.436Z,94901.60
2023-04-10T06:02:35.180Z,94895.60
2023-04-10T06:05:01.450Z,94895.60
2023-04-10T06:07:28.069Z,94894.20
2023-04-10T06:09:54.202Z,94891.60
2023-04-10T06:12:20.674Z,94898.00
2023-04-10T06:14:47.412Z,94893.00
2023-04-10T06:17:13.641Z,94890.60
2023-04-10T06:19:39.733Z,94888.20
2023-04-10T06:22:05.999Z,94888.80
2023-04-10T06:24:32.221Z,94886.00
2023-04-10T06:26:58.474Z,94893.00
2023-04-10T06:29:24.644Z,94896.20
2023-04-10T06:31:51.376Z,94899.20
2023-04-10T06:34:17.753Z,94898.40
2023-04-10T06:36:43.904Z,94899.40
2023-04-10T06:39:10.060Z,94901.00
2023-04-10T06:41:36.162Z,94898.40
2023-04-10T06:44:03.388Z,94899.20
2023-04-10T06:46:30.060Z,94898.40
2023-04-10T06:48:56.810Z,94904.40
2023-04-10T06:51:23.084Z,94904.80
2023-04-10T06:53:49.267Z,94903.20
2023-04-10T06:56:15.620Z,94903.60
2023-04-10T06:58:41.747Z,94905.40
2023-04-10T07:01:08.078Z,94907.20
2023-04-10T07:03:34.372Z,94904.40
2023-04-10T07:06:02.418Z,94902.20
2023-04-10T07:08:28.833Z,94901.40
2023-04-10T07:10:56.590Z,94904.00
2023-04-10T07:13:24.673Z,94904.40
2023-04-10T07:15:51.076Z,94905.00
2023-04-10T07:18:17.220Z,94903.00
2023-04-10T07:20:43.379Z,94900.00
2023-04-10T07:23:09.941Z,94902.40
2023-04-10T07:25:36.201Z,94900.00
2023-04-10T07:28:02.431Z,94903.80
2023-04-10T07:30:28.539Z,94909.00
2023-04-10T07:32:54.760Z,94911.00
2023-04-10T07:35:21.166Z,94910.80
2023-04-10T07:37:51.107Z,94909.80
2023-04-10T07:40:17.442Z,94910.80
2023-04-10T07:42:43.553Z,94906.00
2023-04-10T07:45:09.719Z,94909.00
2023-04-10T07:47:35.908Z,94912.60
2023-04-10T07:50:02.080Z,94904.40
2023-04-10T07:52:28.419Z,94901.80
2023-04-10T07:54:54.524Z,94902.40
2023-04-10T07:57:20.796Z,94903.80
2023-04-10T07:59:46.979Z,94907.40
2023-04-10T08:02:13.784Z,94912.20
2023-04-10T08:04:42.017Z,94911.20
2023-04-10T08:07:08.321Z,94910.80
2023-04-10T08:09:34.600Z,94912.60
2023-04-10T08:12:00.724Z,94904.80
2023-04-10T08:14:27.241Z,94907.80
2023-04-10T08:16:53.442Z,94906.40
2023-04-10T08:19:19.737Z,94903.80
2023-04-10T08:21:45.888Z,94904.40
2023-04-10T08:24:12.110Z,94902.20
2023-04-10T08:26:38.383Z,94904.80
2023-04-10T08:29:04.661Z,94900.20
2023-04-10T08:31:31.035Z,94901.20
2023-04-10T08:33:57.634Z,94901.80
2023-04-10T08:36:26.492Z,94905.00
2023-04-10T08:38:52.621Z,94909.60
2023-04-10T08:41:18.847Z,94908.20
2023-04-10T08:43:45.611Z,94911.60
2023-04-10T08:46:11.988Z,94904.20
2023-04-10T08:48:38.171Z,94897.60
2023-04-10T08:51:04.967Z,94901.60
2023-04-10T08:53:32.131Z,94905.40
2023-04-10T08:55:58.389Z,94904.40
2023-04-10T08:58:24.631Z,94905.80
2023-04-10T09:00:50.704Z,94903.60
2023-04-10T09:03:16.994Z,94902.00
2023-04-10T09:05:45.995Z,94900.60
2023-04-10T09:08:12.925Z,94898.20
2023-04-10T09:10:39.339Z,94898.00
2023-04-10T09:13:05.618Z,94894.00
2023-04-10T09:15:31.814Z,94897.60
2023-04-10T09:17:58.141Z,94896.20
2023-04-10T09:20:24.437Z,94898.80
2023-04-10T09:22:50.633Z,94892.60
2023-04-10T09:25:16.797Z,94892.00
2023-04-10T09:27:42.914Z,94890.60
2023-04-10T09:30:09.009Z,94891.40
2023-04-10T09:32:35.189Z,94893.20
2023-04-10T09:35:01.404Z,94894.20
2023-04-10T09:37:27.580Z,94890.00
2023-04-10T09:39:53.717Z,94892.40
2023-04-10T09:42:20.214Z,94890.60
2023-04-10T09:44:46.401Z,94885.80
2023-04-10T09:47:12.490Z,94891.20
2023-04-10T09:49:38.795Z,94887.60
2023-04-10T09:52:05.369Z,94887.00
2023-04-10T09:54:31.546Z,94886.20
2023-04-10T09:56:57.783Z,94886.60
2023-04-10T09:59:24.038Z,94885.40
2023-04-10T10:01:50.401Z,94881.80
2023-04-10T10:04:16.732Z,94877.60
2023-04-10T10:06:42.977Z,94878.20
2023-04-10T10:09:09.070Z,94882.20
2023-04-10T10:11:35.645Z,94875.60
2023-04-10T10:14:01.913Z,94876.60
2023-04-10T10:16:28.138Z,94873.60
2023-04-10T10:18:55.038Z,94873.20
2023-04-10T10:21:22.585Z,94873.40
2023-04-10T10:23:53.212Z,94874.20
2023-04-10T10:26:20.419Z,94871.20
2023-04-10T10:28:46.697Z,94871.40
2023-04-10T10:31:12.833Z,94871.80
2023-04-10T10:33:39.132Z,94869.40
2023-04-10T10:36:05.343Z,94869.20
2023-04-10T10:38:31.443Z,94868.60
2023-04-10T10:40:57.583Z,94865.60
2023-04-10T10:43:23.683Z,94862.20
2023-04-10T10:45:49.881Z,94863.20
2023-04-10T10:48:16.148Z,94863.20
2023-04-10T10:50:42.324Z,94859.60
2023-04-10T10:53:11.288Z,94855.80
2023-04-10T10:55:37.962Z,94850.80
2023-04-10T10:58:04.675Z,94851.40
2023-04-10T11:00:31.611Z,94847.80
2023-04-10T11:02:58.124Z,94853.20
2023-04-10T11:05:24.533Z,94849.60
2023-04-10T11:07:50.661Z,94849.40
2023-04-10T11:10:16.839Z,94848.60
2023-04-10T11:12:42.964Z,94845.00
2023-04-10T11:15:09.109Z,94846.00
2023-04-10T11:17:35.458Z,94843.60
2023-04-10T11:20:02.624Z,94840.20
2023-04-10T11:22:28.721Z,94836.60
2023-04-10T11:24:55.667Z,94839.80
2023-04-10T11:27:21.799Z,94838.20
2023-04-10T11:29:47.893Z,94833.00
2023-04-10T11:32:14.234Z,94832.00
2023-04-10T11:34:40.925Z,94832.00
2023-04-10T11:37:07.087Z,94827.80
2023-04-10T11:39:33.213Z,94825.00
2023-04-10T11:42:00.925Z,94828.80
2023-04-10T11:44:27.055Z,94826.00
2023-04-10T11:46:53.226Z,94825.80
2023-04-10T11:49:19.606Z,94822.60
2023-04-10T11:51:45.941Z,94821.80
2023-04-10T11:54:12.072Z,94819.00
2023-04-10T11:56:38.213Z,94815.80
2023-04-10T11:59:06.981Z,94815.60
2023-04-10T12:01:33.694Z,94816.60
2023-04-10T12:04:00.931Z,94815.00
2023-04-10T12:06:27.441Z,94819.20
2023-04-10T12:08:53.823Z,94811.60
2023-04-10T12:11:20.699Z,94808.60
2023-04-10T12:13:47.551Z,94810.60
2023-04-10T12:16:13.804Z,94807.60
2023-04-10T12:18:40.053Z,94801.60
2023-04-10T12:21:08.145Z,94799.00
2023-04-10T12:23:35.174Z,94795.20
2023-04-10T12:26:01.434Z,94794.60
2023-04-10T12:28:27.548Z,94787.60
2023-04-10T12:30:54.424Z,94786.20
2023-04-10T12:33:21.031Z,94781.60
2023-04-10T12:35:47.185Z,94779.40
2023-04-10T12:38:13.570Z,94780.00
2023-04-10T12:40:41.054Z,94775.60
2023-04-10T12:43:07.131Z,94767.00
2023-04-10T12:45:33.326Z,94765.40
2023-04-10T12:47:59.809Z,94762.00
2023-04-10T12:50:26.644Z,94761.80
2023-04-10T12:52:52.769Z,94756.40
2023-04-10T12:55:19.337Z,94749.60
2023-04-10T12:57:45.583Z,94750.00
2023-04-10T13:00:12.062Z,94749.20
2023-04-10T13:02:38.721Z,94742.40
2023-04-10T13:05:05.124Z,94739.40
2023-04-10T13:07:31.343Z,94738.80
2023-04-10T13:09:57.424Z,94733.40
2023-04-10T13:12:25.268Z,94729.20
2023-04-10T13:14:53.524Z,94728.20
2023-04-10T13:17:20.035Z,94729.00
2023-04-10T13:19:46.181Z,94721.60
2023-04-10T13:22:12.414Z,94726.20
2023-04-10T13:24:38.569Z,94720.60
2023-04-10T13:27:05.350Z,94724.40
2023-04-10T13:29:31.458Z,94717.60
2023-04-10T13:31:59.670Z,94720.60
2023-04-10T13:34:25.979Z,94724.00
2023-04-10T13:36:52.366Z,94722.00
2023-04-10T13:39:18.846Z,94713.40
2023-04-10T13:41:45.194Z,94711.20
2023-04-10T13:44:11.455Z,94709.40
2023-04-10T13:46:37.568Z,94706.00
2023-04-10T13:49:03.748Z,94705.80
2023-04-10T13:51:30.323Z,94700.00
2023-04-10T13:53:56.413Z,94695.20
2023-04-10T13:56:22.636Z,94698.00
2023-04-10T13:58:48.758Z,94696.40
2023-04-10T14:01:15.043Z,94694.00
2023-04-10T14:03:41.461Z,94690.40
2023-04-10T14:06:07.945Z,94688.60
2023-04-10T14:08:34.053Z,94687.20
2023-04-10T14:11:00.360Z,94681.00
2023-04-10T14:13:26.546Z,94680.20
2023-04-10T14:15:53.058Z,94680.60
2023-04-10T14:18:19.181Z,94674.20
2023-04-10T14:20:45.404Z,94671.60
2023-04-10T14:23:17.421Z,94669.80
2023-04-10T14:25:46.758Z,94670.40
2023-04-10T14:28:16.957Z,94662.80
2023-04-10T14:30:43.207Z,94669.60
2023-04-10T14:33:09.456Z,94667.00
2023-04-10T14:35:35.705Z,94665.60
2023-04-10T14:38:01.865Z,94661.40
2023-04-10T14:40:28.065Z,94659.20
2023-04-10T14:42:54.293Z,94656.60
2023-04-10T14:45:20.426Z,94653.80
2023-04-10T14:47:47.460Z,94655.40
2023-04-10T14:50:13.925Z,94651.60
2023-04-10T14:52:40.076Z,94652.20
2023-04-10T14:55:06.218Z,94650.00
2023-04-10T14:57:32.824Z,94652.60
2023-04-10T15:00:00.661Z,94653.20
2023-04-10T15:02:26.859Z,94655.80
2023-04-10T15:04:53.321Z,94654.60
2023-04-10T15:07:19.565Z,94654.60
2023-04-10T15:09:46.036Z,94655.20
2023-04-10T15:12:12.121Z,94653.20
2023-04-10T15:14:38.598Z,94655.00
2023-04-10T15:17:05.044Z,94656.80
2023-04-10T15:19:31.293Z,94654.40
2023-04-10T15:21:57.880Z,94660.00
2023-04-10T15:24:24.214Z,94661.40
2023-04-10T15:26:50.424Z,94658.60
2023-04-10T15:29:16.512Z,94660.60
2023-04-10T15:31:42.985Z,94660.20
2023-04-10T15:34:09.136Z,94665.60
2023-04-10T15:36:35.390Z,94660.20
2023-04-10T15:39:03.174Z,94665.00
2023-04-10T15:41:31.096Z,94664.80
2023-04-10T15:43:57.427Z,94662.20
2023-04-10T15:46:24.023Z,94659.40
2023-04-10T15:48:50.303Z,94660.20
2023-04-10T15:51:16.528Z,94660.00
2023-04-10T15:53:42.673Z,94665.80
2023-04-10T15:56:11.890Z,94666.40
2023-04-10T15:58:38.214Z,94664.60
2023-04-10T16:01:04.421Z,94666.80
2023-04-10T16:03:30.782Z,94658.20
2023-04-10T16:06:00.327Z,94652.20
2023-04-10T16:08:26.940Z,94651.00
2023-04-10T16:10:53.297Z,94648.40
2023-04-10T16:13:19.675Z,94649.80
2023-04-10T16:15:46.569Z,94648.80
2023-04-10T16:18:12.981Z,94646.60
2023-04-10T16:20:39.531Z,94641.80
2023-04-10T16:23:05.681Z,94640.00
2023-04-10T16:25:31.774Z,94641.40
2023-04-10T16:27:58.166Z,94640.60
2023-04-10T16:30:24.676Z,94633.00
2023-04-10T16:32:51.242Z,94619.60
2023-04-10T16:35:18.519Z,94589.20
2023-04-10T16:37:44.951Z,94561.20
2023-04-10T16:40:11.962Z,94555.40
2023-04-10T16:42:38.742Z,94574.60
2023-04-10T16:45:07.578Z,94587.40
2023-04-10T16:47:34.331Z,94584.80
2023-04-10T16:50:00.660Z,94582.60
2023-04-10T16:52:26.915Z,94579.40
2023-04-10T16:54:53.458Z,94578.20
2023-04-10T16:57:19.552Z,94582.60
2023-04-10T16:59:45.725Z,94589.20
2023-04-10T17:02:11.876Z,94585.00
2023-04-10T17:04:38.187Z,94583.80
2023-04-10T17:07:04.771Z,94579.20
2023-04-10T17:09:31.490Z,94583.20
2023-04-10T17:11:58.090Z,94582.60
2023-04-10T17:14:24.914Z,94587.20
2023-04-10T17:16:51.396Z,94585.20
2023-04-10T17:19:17.649Z,94590.80
2023-04-10T17:21:44.030Z,94586.80
2023-04-10T17:24:10.536Z,94590.20
2023-04-10T17:26:37.030Z,94581.80
2023-04-10T17:29:03.542Z,94584.80
2023-04-10T17:31:30.624Z,94590.40
2023-04-10T17:33:58.028Z,94592.60
2023-04-10T17:36:26.063Z,94591.20
2023-04-10T17:38:54.038Z,94588.80
2023-04-10T17:41:20.525Z,94593.60
2023-04-10T17:43:46.798Z,94594.80
2023-04-10T17:46:13.828Z,94596.20
2023-04-10T17:48:40.046Z,94586.20
2023-04-10T17:51:06.775Z,94580.80
2023-04-10T17:53:33.292Z,94583.60
2023-04-10T17:55:59.880Z,94578.60
2023-04-10T17:58:26.462Z,94580.00
2023-04-10T18:00:52.737Z,94586.20
2023-04-10T18:03:19.402Z,94592.40
2023-04-10T18:05:46.304Z,94601.00
2023-04-10T18:08:13.813Z,94617.00
2023-04-10T18:10:39.996Z,94622.60
2023-04-10T18:13:06.194Z,94628.60
2023-04-10T18:15:32.581Z,94637.40
2023-04-10T18:18:01.680Z,94645.60
2023-04-10T18:20:27.859Z,94646.40
2023-04-10T18:22:54.143Z,94648.00
2023-04-10T18:25:20.426Z,94648.20
2023-04-10T18:27:55.614Z,94655.20
2023-04-10T18:30:38.147Z,94659.60
2023-04-10T18:33:07.256Z,94660.00
2023-04-10T18:35:34.729Z,94664.00
2023-04-10T18:38:01.286Z,94663.60
2023-04-10T18:40:27.974Z,94663.40
2023-04-10T18:42:54.475Z,94663.60
2023-04-10T18:45:21.250Z,94661.60
2023-04-10T18:47:47.784Z,94659.80
2023-04-10T18:50:14.304Z,94656.40
2023-04-10T18:52:40.788Z,94657.60
2023-04-10T18:55:07.192Z,94649.20
2023-04-10T18:57:33.667Z,94641.40
2023-04-10T19:00:00.229Z,94636.20
2023-04-10T19:02:26.722Z,94632.60
2023-04-10T19:04:53.559Z,94633.20
2023-04-10T19:07:20.206Z,94630.40
2023-04-10T19:09:47.968Z,94632.60
2023-04-10T19:12:14.270Z,94624.00
2023-04-10T19:14:40.821Z,94619.40
2023-04-10T19:17:07.787Z,94616.40
2023-04-10T19:19:34.085Z,94616.00
2023-04-10T19:22:00.601Z,94615.60
2023-04-10T19:24:26.954Z,94616.40
2023-04-10T19:26:55.113Z,94612.20
2023-04-10T19:29:22.452Z,94609.20
2023-04-10T19:31:48.821Z,94604.80
2023-04-10T19:34:15.536Z,94605.40
2023-04-10T19:36:42.533Z,94609.60
2023-04-10T19:39:08.681Z,94603.20
2023-04-10T19:41:36.518Z,94603.40
2023-04-10T19:44:02.725Z,94600.40
2023-04-10T19:46:30.421Z,94589.80
2023-04-10T19:48:56.580Z,94584.40
2023-04-10T19:51:22.819Z,94582.60
2023-04-10T19:53:49.588Z,94576.40
2023-04-10T19:56:16.320Z,94569.40
2023-04-10T19:58:43.813Z,94568.20
2023-04-10T20:01:12.002Z,94566.60
2023-04-10T20:03:38.667Z,94566.60
2023-04-10T20:06:06.592Z,94562.40
2023-04-10T20:08:32.714Z,94562.00
2023-04-10T20:10:58.962Z,94562.40
2023-04-10T20:13:25.234Z,94560.20
2023-04-10T20:15:51.513Z,94561.20
2023-04-10T20:18:17.639Z,94558.80
2023-04-10T20:20:43.769Z,94558.40
2023-04-10T20:23:09.970Z,94555.00
2023-04-10T20:25:36.156Z,94551.00
2023-04-10T20:28:02.270Z,94546.00
2023-04-10T20:30:28.369Z,94544.80
2023-04-10T20:32:54.514Z,94546.80
2023-04-10T20:35:20.654Z,94546.80
2023-04-10T20:37:46.978Z,94549.60
2023-04-10T20:40:13.081Z,94544.40
2023-04-10T20:42:39.168Z,94536.60
2023-04-10T20:45:05.463Z,94536.60
2023-04-10T20:47:31.600Z,94531.80
2023-04-10T20:49:57.770Z,94520.80
2023-04-10T20:52:24.192Z,94524.00
2023-04-10T20:54:50.392Z,94522.20
2023-04-10T20:57:16.464Z,94517.80
2023-04-10T20:59:42.581Z,94518.80
2023-04-10T21:02:08.933Z,94517.20
2023-04-10T21:04:35.177Z,94512.60
2023-04-10T21:07:01.298Z,94507.80
2023-04-10T21:09:27.420Z,94504.60
2023-04-10T21:11:53.665Z,94497.80
2023-04-10T21:14:19.798Z,94495.80
2023-04-10T21:16:46.007Z,94500.00
2023-04-10T21:19:12.211Z,94505.00
2023-04-10T21:21:38.376Z,94507.00
2023-04-10T21:24:04.727Z,94503.40
2023-04-10T21:26:30.843Z,94501.20
2023-04-10T21:28:56.973Z,94499.20
2023-04-10T21:31:23.088Z,94496.40
2023-04-10T21:33:49.188Z,94495.60
2023-04-10T21:36:15.365Z,94488.00
2023-04-10T21:38:41.553Z,94481.40
2023-04-10T21:41:07.632Z,94477.20
2023-04-10T21:43:34.655Z,94484.40
2023-04-10T21:46:02.760Z,94486.20
2023-04-10T21:48:29.260Z,94486.00
2023-04-10T21:50:55.526Z,94479.20
2023-04-10T21:53:21.632Z,94475.60
2023-04-10T21:55:49.426Z,94471.20
2023-04-10T21:58:15.577Z,94470.60
2023-04-10T22:00:41.892Z,94472.00
2023-04-10T22:03:09.022Z,94468.40
2023-04-10T22:05:35.268Z,94463.20
2023-04-10T22:08:01.344Z,94463.00
2023-04-10T22:10:27.473Z,94456.80
2023-04-10T22:12:53.718Z,94453.60
2023-04-10T22:15:19.853Z,94450.60
2023-04-10T22:17:46.142Z,94455.40
2023-04-10T22:20:12.307Z,94452.00
2023-04-10T22:22:38.479Z,94449.40
2023-04-10T22:25:04.815Z,94445.20
2023-04-10T22:27:31.142Z,94441.20
2023-04-10T22:30:03.244Z,94442.80
2023-04-10T22:32:30.343Z,94448.40
2023-04-10T22:34:56.489Z,94448.40
2023-04-10T22:37:22.566Z,94449.20
2023-04-10T22:39:48.712Z,94454.60
2023-04-10T22:42:15.142Z,94449.80
2023-04-10T22:44:41.247Z,94447.20
2023-04-10T22:47:07.383Z,94438.40
2023-04-10T22:49:33.528Z,94440.80
2023-04-10T22:51:59.671Z,94440.20
2023-04-10T22:54:25.807Z,94439.20
2023-04-10T22:56:51.959Z,94440.20
2023-04-10T22:59:18.063Z,94440.00
2023-04-10T23:01:44.560Z,94438.40
2023-04-10T23:04:10.795Z,94431.40
2023-04-10T23:06:37.073Z,94428.80
2023-04-10T23:09:03.264Z,94421.20
2023-04-10T23:11:29.416Z,94418.20
2023-04-10T23:13:55.759Z,94416.60
2023-04-10T23:16:21.888Z,94414.00
2023-04-10T23:18:48.083Z,94412.20
2023-04-10T23:21:14.190Z,94414.40
2023-04-10T23:23:40.398Z,94419.60
2023-04-10T23:26:06.669Z,94413.00
2023-04-10T23:28:32.795Z,94408.80
2023-04-10T23:30:58.900Z,94403.60
2023-04-10T23:33:25.224Z,94392.40
2023-04-10T23:35:51.402Z,94395.00
2023-04-10T23:38:17.764Z,94391.20
2023-04-10T23:40:44.016Z,94388.80
2023-04-10T23:43:10.079Z,94388.60
2023-04-10T23:45:36.183Z,94393.00
2023-04-10T23:48:02.358Z,94392.60
2023-04-10T23:50:28.613Z,94387.60
2023-04-10T23:52:54.772Z,94387.00
2023-04-10T23:55:21.124Z,94379.00
2023-04-10T23:57:47.252Z,94373.80
